sensor_id;sensor_type;location;lat;lon;timestamp;P1;durP1;ratioP1;P2;durP2;ratioP2
994;SDS011;486;48.726;8.964;2023-01-28T00:01:19;10.98;;;7.55;;
994;SDS011;486;48.726;8.964;2023-01-28T00:03:48;10.68;;;7.78;;
994;SDS011;486;48.726;8.964;2023-01-28T00:06:18;11.38;;;8.88;;
994;SDS011;486;48.726;8.964;2023-01-28T00:08:47;8.98;;;6.45;;
994;SDS011;486;48.726;8.964;2023-01-28T00:11:16;13.85;;;8.38;;
994;SDS011;486;48.726;8.964;2023-01-28T00:13:51;11.98;;;7.65;;
994;SDS011;486;48.726;8.964;2023-01-28T00:16:21;9.80;;;8.05;;
994;SDS011;486;48.726;8.964;2023-01-28T00:18:51;9.45;;;7.85;;
994;SDS011;486;48.726;8.964;2023-01-28T00:21:20;11.07;;;7.70;;
994;SDS011;486;48.726;8.964;2023-01-28T00:23:49;9.02;;;6.60;;
994;SDS011;486;48.726;8.964;2023-01-28T00:26:21;8.85;;;7.50;;
994;SDS011;486;48.726;8.964;2023-01-28T00:28:54;9.50;;;8.27;;
994;SDS011;486;48.726;8.964;2023-01-28T00:31:24;10.52;;;7.22;;
994;SDS011;486;48.726;8.964;2023-01-28T00:33:54;11.57;;;7.45;;
994;SDS011;486;48.726;8.964;2023-01-28T00:36:24;11.57;;;8.18;;
994;SDS011;486;48.726;8.964;2023-01-28T00:38:54;9.20;;;6.75;;
994;SDS011;486;48.726;8.964;2023-01-28T00:41:26;8.60;;;6.53;;
994;SDS011;486;48.726;8.964;2023-01-28T00:43:59;10.63;;;8.30;;
994;SDS011;486;48.726;8.964;2023-01-28T00:46:28;8.70;;;6.72;;
994;SDS011;486;48.726;8.964;2023-01-28T00:48:57;11.48;;;7.38;;
994;SDS011;486;48.726;8.964;2023-01-28T00:51:26;10.90;;;7.75;;
994;SDS011;486;48.726;8.964;2023-01-28T00:53:55;10.77;;;7.80;;
994;SDS011;486;48.726;8.964;2023-01-28T00:56:25;10.02;;;8.38;;
994;SDS011;486;48.726;8.964;2023-01-28T00:58:54;11.75;;;7.00;;
994;SDS011;486;48.726;8.964;2023-01-28T01:01:26;11.98;;;7.28;;
994;SDS011;486;48.726;8.964;2023-01-28T01:03:55;10.38;;;7.10;;
994;SDS011;486;48.726;8.964;2023-01-28T01:06:29;9.02;;;7.20;;
994;SDS011;486;48.726;8.964;2023-01-28T01:08:59;13.00;;;7.78;;
994;SDS011;486;48.726;8.964;2023-01-28T01:11:29;9.00;;;6.30;;
994;SDS011;486;48.726;8.964;2023-01-28T01:13:59;8.80;;;7.15;;
994;SDS011;486;48.726;8.964;2023-01-28T01:16:31;11.00;;;7.05;;
994;SDS011;486;48.726;8.964;2023-01-28T01:19:03;9.05;;;7.38;;
994;SDS011;486;48.726;8.964;2023-01-28T01:21:34;7.60;;;6.85;;
994;SDS011;486;48.726;8.964;2023-01-28T01:24:03;8.65;;;6.55;;
994;SDS011;486;48.726;8.964;2023-01-28T01:26:33;9.52;;;7.25;;
994;SDS011;486;48.726;8.964;2023-01-28T01:29:02;9.40;;;7.05;;
994;SDS011;486;48.726;8.964;2023-01-28T01:31:36;10.85;;;7.70;;
994;SDS011;486;48.726;8.964;2023-01-28T01:34:05;9.23;;;6.93;;
994;SDS011;486;48.726;8.964;2023-01-28T01:36:36;8.05;;;6.50;;
994;SDS011;486;48.726;8.964;2023-01-28T01:39:05;10.48;;;7.45;;
994;SDS011;486;48.726;8.964;2023-01-28T01:41:34;9.52;;;6.50;;
994;SDS011;486;48.726;8.964;2023-01-28T01:44:04;10.65;;;6.88;;
994;SDS011;486;48.726;8.964;2023-01-28T01:46:52;9.98;;;6.35;;
994;SDS011;486;48.726;8.964;2023-01-28T01:49:23;6.95;;;5.55;;
994;SDS011;486;48.726;8.964;2023-01-28T01:51:55;7.00;;;5.00;;
994;SDS011;486;48.726;8.964;2023-01-28T01:54:29;7.60;;;6.13;;
994;SDS011;486;48.726;8.964;2023-01-28T01:57:00;10.75;;;6.88;;
994;SDS011;486;48.726;8.964;2023-01-28T01:59:32;6.60;;;5.57;;
994;SDS011;486;48.726;8.964;2023-01-28T02:02:05;8.50;;;6.47;;
994;SDS011;486;48.726;8.964;2023-01-28T02:04:38;9.23;;;6.78;;
994;SDS011;486;48.726;8.964;2023-01-28T02:07:09;8.25;;;6.15;;
994;SDS011;486;48.726;8.964;2023-01-28T02:09:41;8.82;;;6.82;;
994;SDS011;486;48.726;8.964;2023-01-28T02:12:11;8.95;;;5.80;;
994;SDS011;486;48.726;8.964;2023-01-28T02:14:44;7.97;;;5.78;;
994;SDS011;486;48.726;8.964;2023-01-28T02:17:19;10.32;;;7.28;;
994;SDS011;486;48.726;8.964;2023-01-28T02:19:50;8.80;;;5.53;;
994;SDS011;486;48.726;8.964;2023-01-28T02:28:43;8.23;;;5.00;;
994;SDS011;486;48.726;8.964;2023-01-28T02:31:17;8.45;;;6.15;;
994;SDS011;486;48.726;8.964;2023-01-28T02:33:54;8.73;;;5.45;;
994;SDS011;486;48.726;8.964;2023-01-28T02:36:35;7.93;;;6.72;;
994;SDS011;486;48.726;8.964;2023-01-28T02:39:15;9.40;;;6.10;;
994;SDS011;486;48.726;8.964;2023-01-28T02:41:50;8.20;;;5.38;;
994;SDS011;486;48.726;8.964;2023-01-28T02:44:27;9.77;;;6.03;;
994;SDS011;486;48.726;8.964;2023-01-28T02:46:56;7.97;;;6.30;;
994;SDS011;486;48.726;8.964;2023-01-28T02:49:39;9.38;;;5.30;;
994;SDS011;486;48.726;8.964;2023-01-28T02:52:17;6.45;;;5.65;;
994;SDS011;486;48.726;8.964;2023-01-28T02:55:19;8.25;;;5.50;;
994;SDS011;486;48.726;8.964;2023-01-28T02:57:59;6.38;;;5.00;;
994;SDS011;486;48.726;8.964;2023-01-28T03:00:43;8.18;;;5.75;;
994;SDS011;486;48.726;8.964;2023-01-28T03:03:21;9.07;;;5.78;;
994;SDS011;486;48.726;8.964;2023-01-28T03:05:56;5.88;;;5.20;;
994;SDS011;486;48.726;8.964;2023-01-28T03:08:34;7.43;;;5.30;;
994;SDS011;486;48.726;8.964;2023-01-28T03:11:20;8.48;;;5.85;;
994;SDS011;486;48.726;8.964;2023-01-28T03:14:02;7.30;;;5.40;;
994;SDS011;486;48.726;8.964;2023-01-28T03:16:47;7.45;;;5.97;;
994;SDS011;486;48.726;8.964;2023-01-28T03:19:31;7.18;;;5.18;;
994;SDS011;486;48.726;8.964;2023-01-28T03:22:13;8.40;;;5.75;;
994;SDS011;486;48.726;8.964;2023-01-28T03:24:55;8.15;;;6.03;;
994;SDS011;486;48.726;8.964;2023-01-28T03:27:42;6.65;;;5.85;;
994;SDS011;486;48.726;8.964;2023-01-28T03:30:28;7.10;;;5.75;;
994;SDS011;486;48.726;8.964;2023-01-28T03:33:30;7.75;;;6.10;;
994;SDS011;486;48.726;8.964;2023-01-28T03:36:14;12.90;;;7.15;;
994;SDS011;486;48.726;8.964;2023-01-28T03:38:56;9.15;;;6.65;;
994;SDS011;486;48.726;8.964;2023-01-28T03:41:25;9.45;;;6.60;;
994;SDS011;486;48.726;8.964;2023-01-28T03:43:56;11.13;;;6.97;;
994;SDS011;486;48.726;8.964;2023-01-28T03:46:38;7.88;;;6.07;;
994;SDS011;486;48.726;8.964;2023-01-28T03:49:10;9.88;;;7.72;;
994;SDS011;486;48.726;8.964;2023-01-28T03:51:39;10.65;;;7.07;;
994;SDS011;486;48.726;8.964;2023-01-28T03:54:10;10.52;;;7.65;;
994;SDS011;486;48.726;8.964;2023-01-28T03:56:41;10.70;;;7.25;;
994;SDS011;486;48.726;8.964;2023-01-28T03:59:10;11.52;;;7.07;;
994;SDS011;486;48.726;8.964;2023-01-28T04:01:39;10.35;;;6.90;;
994;SDS011;486;48.726;8.964;2023-01-28T04:04:10;11.82;;;7.28;;
994;SDS011;486;48.726;8.964;2023-01-28T04:06:47;9.85;;;6.72;;
994;SDS011;486;48.726;8.964;2023-01-28T04:09:40;9.70;;;6.97;;
994;SDS011;486;48.726;8.964;2023-01-28T04:12:34;10.98;;;7.00;;
994;SDS011;486;48.726;8.964;2023-01-28T04:15:05;9.95;;;7.90;;
994;SDS011;486;48.726;8.964;2023-01-28T04:17:44;11.93;;;8.00;;
994;SDS011;486;48.726;8.964;2023-01-28T04:20:25;13.10;;;8.15;;
994;SDS011;486;48.726;8.964;2023-01-28T04:22:57;10.30;;;7.18;;
994;SDS011;486;48.726;8.964;2023-01-28T04:25:27;9.73;;;7.15;;
994;SDS011;486;48.726;8.964;2023-01-28T04:27:57;10.15;;;6.75;;
994;SDS011;486;48.726;8.964;2023-01-28T04:30:28;17.48;;;8.80;;
994;SDS011;486;48.726;8.964;2023-01-28T04:33:17;9.50;;;7.40;;
994;SDS011;486;48.726;8.964;2023-01-28T04:35:51;10.93;;;7.70;;
994;SDS011;486;48.726;8.964;2023-01-28T04:38:39;10.00;;;6.80;;
994;SDS011;486;48.726;8.964;2023-01-28T04:41:27;10.50;;;8.05;;
994;SDS011;486;48.726;8.964;2023-01-28T04:44:03;10.75;;;8.10;;
994;SDS011;486;48.726;8.964;2023-01-28T04:47:04;13.98;;;8.93;;
994;SDS011;486;48.726;8.964;2023-01-28T04:49:53;12.32;;;8.13;;
994;SDS011;486;48.726;8.964;2023-01-28T04:52:32;13.55;;;9.07;;
994;SDS011;486;48.726;8.964;2023-01-28T04:55:17;14.35;;;9.75;;
994;SDS011;486;48.726;8.964;2023-01-28T04:57:46;12.93;;;9.63;;
994;SDS011;486;48.726;8.964;2023-01-28T05:00:16;13.70;;;9.57;;
994;SDS011;486;48.726;8.964;2023-01-28T05:02:46;14.73;;;10.27;;
994;SDS011;486;48.726;8.964;2023-01-28T05:05:15;13.55;;;9.50;;
994;SDS011;486;48.726;8.964;2023-01-28T05:07:56;15.45;;;11.40;;
994;SDS011;486;48.726;8.964;2023-01-28T05:10:26;15.30;;;9.68;;
994;SDS011;486;48.726;8.964;2023-01-28T05:12:56;17.52;;;12.35;;
994;SDS011;486;48.726;8.964;2023-01-28T05:15:25;16.92;;;10.95;;
994;SDS011;486;48.726;8.964;2023-01-28T05:17:55;15.00;;;10.95;;
994;SDS011;486;48.726;8.964;2023-01-28T05:20:27;18.13;;;11.88;;
994;SDS011;486;48.726;8.964;2023-01-28T05:22:59;16.85;;;11.30;;
994;SDS011;486;48.726;8.964;2023-01-28T05:25:40;12.60;;;9.10;;
994;SDS011;486;48.726;8.964;2023-01-28T05:28:10;18.77;;;11.35;;
994;SDS011;486;48.726;8.964;2023-01-28T05:30:39;18.20;;;11.75;;
994;SDS011;486;48.726;8.964;2023-01-28T05:33:08;17.10;;;10.65;;
994;SDS011;486;48.726;8.964;2023-01-28T05:35:37;17.63;;;11.30;;
994;SDS011;486;48.726;8.964;2023-01-28T05:38:08;20.38;;;11.38;;
994;SDS011;486;48.726;8.964;2023-01-28T05:40:38;13.95;;;8.80;;
994;SDS011;486;48.726;8.964;2023-01-28T05:43:07;16.95;;;11.05;;
994;SDS011;486;48.726;8.964;2023-01-28T05:45:41;15.38;;;9.30;;
994;SDS011;486;48.726;8.964;2023-01-28T05:48:34;17.45;;;9.80;;
994;SDS011;486;48.726;8.964;2023-01-28T05:51:03;16.23;;;10.07;;
994;SDS011;486;48.726;8.964;2023-01-28T05:53:38;19.00;;;9.93;;
994;SDS011;486;48.726;8.964;2023-01-28T05:56:07;14.13;;;10.35;;
994;SDS011;486;48.726;8.964;2023-01-28T05:58:37;14.00;;;9.98;;
994;SDS011;486;48.726;8.964;2023-01-28T06:01:07;16.60;;;10.10;;
994;SDS011;486;48.726;8.964;2023-01-28T06:03:41;14.02;;;10.10;;
994;SDS011;486;48.726;8.964;2023-01-28T06:06:10;15.60;;;9.32;;
994;SDS011;486;48.726;8.964;2023-01-28T06:08:42;13.88;;;8.68;;
994;SDS011;486;48.726;8.964;2023-01-28T06:11:15;15.73;;;10.25;;
994;SDS011;486;48.726;8.964;2023-01-28T06:13:44;13.98;;;9.50;;
994;SDS011;486;48.726;8.964;2023-01-28T06:16:31;11.93;;;9.35;;
994;SDS011;486;48.726;8.964;2023-01-28T06:19:21;13.00;;;9.80;;
994;SDS011;486;48.726;8.964;2023-01-28T06:21:50;14.63;;;10.48;;
994;SDS011;486;48.726;8.964;2023-01-28T06:24:22;17.33;;;10.82;;
994;SDS011;486;48.726;8.964;2023-01-28T06:26:51;18.23;;;11.20;;
994;SDS011;486;48.726;8.964;2023-01-28T06:29:20;15.15;;;9.65;;
994;SDS011;486;48.726;8.964;2023-01-28T06:31:49;16.65;;;10.55;;
994;SDS011;486;48.726;8.964;2023-01-28T06:34:18;15.85;;;10.38;;
994;SDS011;486;48.726;8.964;2023-01-28T06:36:47;13.80;;;9.20;;
994;SDS011;486;48.726;8.964;2023-01-28T06:39:17;13.60;;;9.93;;
994;SDS011;486;48.726;8.964;2023-01-28T06:41:49;18.05;;;11.88;;
994;SDS011;486;48.726;8.964;2023-01-28T06:44:18;15.13;;;9.48;;
994;SDS011;486;48.726;8.964;2023-01-28T06:46:47;18.40;;;10.07;;
994;SDS011;486;48.726;8.964;2023-01-28T06:49:16;14.32;;;9.32;;
994;SDS011;486;48.726;8.964;2023-01-28T06:51:46;15.10;;;9.57;;
994;SDS011;486;48.726;8.964;2023-01-28T06:54:15;12.50;;;9.45;;
994;SDS011;486;48.726;8.964;2023-01-28T06:56:44;16.90;;;10.45;;
994;SDS011;486;48.726;8.964;2023-01-28T06:59:16;14.70;;;10.52;;
994;SDS011;486;48.726;8.964;2023-01-28T07:01:45;14.63;;;10.27;;
994;SDS011;486;48.726;8.964;2023-01-28T07:04:14;16.02;;;10.85;;
994;SDS011;486;48.726;8.964;2023-01-28T07:06:43;14.48;;;10.40;;
994;SDS011;486;48.726;8.964;2023-01-28T07:09:12;15.77;;;10.57;;
994;SDS011;486;48.726;8.964;2023-01-28T07:11:41;18.15;;;11.85;;
994;SDS011;486;48.726;8.964;2023-01-28T07:14:10;19.70;;;11.45;;
994;SDS011;486;48.726;8.964;2023-01-28T07:16:41;16.17;;;10.73;;
994;SDS011;486;48.726;8.964;2023-01-28T07:19:10;14.60;;;9.50;;
994;SDS011;486;48.726;8.964;2023-01-28T07:21:40;15.40;;;10.20;;
994;SDS011;486;48.726;8.964;2023-01-28T07:24:09;16.02;;;9.63;;
994;SDS011;486;48.726;8.964;2023-01-28T07:26:38;16.52;;;10.85;;
994;SDS011;486;48.726;8.964;2023-01-28T07:29:07;16.67;;;10.40;;
994;SDS011;486;48.726;8.964;2023-01-28T07:31:36;12.82;;;9.48;;
994;SDS011;486;48.726;8.964;2023-01-28T07:34:08;14.27;;;11.50;;
994;SDS011;486;48.726;8.964;2023-01-28T07:36:37;15.88;;;10.05;;
994;SDS011;486;48.726;8.964;2023-01-28T07:39:06;14.77;;;9.43;;
994;SDS011;486;48.726;8.964;2023-01-28T07:41:35;13.32;;;9.57;;
994;SDS011;486;48.726;8.964;2023-01-28T07:44:05;17.40;;;11.30;;
994;SDS011;486;48.726;8.964;2023-01-28T07:46:34;15.50;;;10.15;;
994;SDS011;486;48.726;8.964;2023-01-28T07:49:03;16.73;;;11.68;;
994;SDS011;486;48.726;8.964;2023-01-28T07:51:35;17.63;;;10.05;;
994;SDS011;486;48.726;8.964;2023-01-28T07:54:04;18.90;;;12.15;;
994;SDS011;486;48.726;8.964;2023-01-28T07:56:33;26.63;;;18.23;;
994;SDS011;486;48.726;8.964;2023-01-28T07:59:02;21.48;;;13.40;;
994;SDS011;486;48.726;8.964;2023-01-28T08:01:31;20.95;;;13.20;;
994;SDS011;486;48.726;8.964;2023-01-28T08:04:00;15.82;;;11.50;;
994;SDS011;486;48.726;8.964;2023-01-28T08:06:29;19.30;;;15.30;;
994;SDS011;486;48.726;8.964;2023-01-28T08:09:04;24.73;;;15.85;;
994;SDS011;486;48.726;8.964;2023-01-28T08:11:36;20.25;;;13.68;;
994;SDS011;486;48.726;8.964;2023-01-28T08:14:06;18.77;;;14.05;;
994;SDS011;486;48.726;8.964;2023-01-28T08:16:36;23.92;;;14.68;;
994;SDS011;486;48.726;8.964;2023-01-28T08:19:06;29.73;;;20.30;;
994;SDS011;486;48.726;8.964;2023-01-28T08:21:35;23.80;;;15.65;;
994;SDS011;486;48.726;8.964;2023-01-28T08:24:06;19.17;;;12.80;;
994;SDS011;486;48.726;8.964;2023-01-28T08:26:36;23.30;;;13.70;;
994;SDS011;486;48.726;8.964;2023-01-28T08:29:05;18.98;;;13.93;;
994;SDS011;486;48.726;8.964;2023-01-28T08:31:34;16.67;;;12.98;;
994;SDS011;486;48.726;8.964;2023-01-28T08:34:03;21.15;;;14.88;;
994;SDS011;486;48.726;8.964;2023-01-28T08:36:32;26.25;;;18.20;;
994;SDS011;486;48.726;8.964;2023-01-28T08:39:01;21.27;;;15.93;;
994;SDS011;486;48.726;8.964;2023-01-28T08:41:32;17.40;;;12.85;;
994;SDS011;486;48.726;8.964;2023-01-28T08:44:01;20.52;;;14.50;;
994;SDS011;486;48.726;8.964;2023-01-28T08:46:30;35.50;;;21.30;;
994;SDS011;486;48.726;8.964;2023-01-28T08:48:59;23.17;;;14.95;;
994;SDS011;486;48.726;8.964;2023-01-28T08:51:28;22.30;;;14.32;;
994;SDS011;486;48.726;8.964;2023-01-28T08:53:57;13.93;;;10.93;;
994;SDS011;486;48.726;8.964;2023-01-28T08:56:26;16.77;;;12.35;;
994;SDS011;486;48.726;8.964;2023-01-28T08:58:58;16.92;;;11.35;;
994;SDS011;486;48.726;8.964;2023-01-28T09:01:27;19.70;;;12.35;;
994;SDS011;486;48.726;8.964;2023-01-28T09:03:56;14.38;;;11.90;;
994;SDS011;486;48.726;8.964;2023-01-28T09:06:25;15.73;;;11.75;;
994;SDS011;486;48.726;8.964;2023-01-28T09:08:55;20.95;;;11.88;;
994;SDS011;486;48.726;8.964;2023-01-28T09:11:24;16.70;;;11.85;;
994;SDS011;486;48.726;8.964;2023-01-28T09:13:58;19.77;;;12.57;;
994;SDS011;486;48.726;8.964;2023-01-28T09:16:27;18.65;;;13.70;;
994;SDS011;486;48.726;8.964;2023-01-28T09:18:56;15.80;;;13.27;;
994;SDS011;486;48.726;8.964;2023-01-28T09:21:25;19.70;;;12.98;;
994;SDS011;486;48.726;8.964;2023-01-28T09:23:54;18.52;;;12.98;;
994;SDS011;486;48.726;8.964;2023-01-28T09:26:23;19.10;;;13.20;;
994;SDS011;486;48.726;8.964;2023-01-28T09:28:52;19.55;;;11.93;;
994;SDS011;486;48.726;8.964;2023-01-28T09:31:23;19.52;;;12.65;;
994;SDS011;486;48.726;8.964;2023-01-28T09:33:52;16.65;;;12.73;;
994;SDS011;486;48.726;8.964;2023-01-28T09:36:21;19.95;;;13.95;;
994;SDS011;486;48.726;8.964;2023-01-28T09:38:50;14.85;;;13.00;;
994;SDS011;486;48.726;8.964;2023-01-28T09:41:22;17.77;;;12.38;;
994;SDS011;486;48.726;8.964;2023-01-28T09:44:00;19.55;;;12.57;;
994;SDS011;486;48.726;8.964;2023-01-28T09:46:36;15.27;;;11.63;;
994;SDS011;486;48.726;8.964;2023-01-28T09:49:16;15.75;;;12.82;;
994;SDS011;486;48.726;8.964;2023-01-28T09:51:50;16.25;;;10.95;;
994;SDS011;486;48.726;8.964;2023-01-28T09:54:23;12.50;;;10.25;;
994;SDS011;486;48.726;8.964;2023-01-28T09:57:01;15.82;;;11.02;;
994;SDS011;486;48.726;8.964;2023-01-28T09:59:34;13.98;;;10.88;;
994;SDS011;486;48.726;8.964;2023-01-28T10:02:16;20.20;;;14.05;;
994;SDS011;486;48.726;8.964;2023-01-28T10:05:02;21.45;;;17.58;;
994;SDS011;486;48.726;8.964;2023-01-28T10:07:45;14.95;;;10.88;;
994;SDS011;486;48.726;8.964;2023-01-28T10:10:25;17.05;;;12.60;;
994;SDS011;486;48.726;8.964;2023-01-28T10:13:00;13.65;;;11.18;;
994;SDS011;486;48.726;8.964;2023-01-28T10:15:46;14.02;;;11.20;;
994;SDS011;486;48.726;8.964;2023-01-28T10:18:31;19.35;;;12.80;;
994;SDS011;486;48.726;8.964;2023-01-28T10:21:05;15.07;;;11.63;;
994;SDS011;486;48.726;8.964;2023-01-28T10:23:47;19.40;;;12.45;;
994;SDS011;486;48.726;8.964;2023-01-28T10:26:27;16.30;;;13.02;;
994;SDS011;486;48.726;8.964;2023-01-28T10:29:02;14.88;;;12.20;;
994;SDS011;486;48.726;8.964;2023-01-28T10:31:40;17.52;;;11.88;;
994;SDS011;486;48.726;8.964;2023-01-28T10:34:20;19.70;;;14.00;;
994;SDS011;486;48.726;8.964;2023-01-28T10:36:50;18.00;;;14.02;;
994;SDS011;486;48.726;8.964;2023-01-28T10:39:20;15.88;;;11.77;;
994;SDS011;486;48.726;8.964;2023-01-28T10:41:51;18.73;;;13.60;;
994;SDS011;486;48.726;8.964;2023-01-28T10:44:29;16.13;;;12.57;;
994;SDS011;486;48.726;8.964;2023-01-28T10:47:03;19.00;;;14.18;;
994;SDS011;486;48.726;8.964;2023-01-28T10:49:43;16.45;;;12.77;;
994;SDS011;486;48.726;8.964;2023-01-28T10:52:17;16.52;;;10.75;;
994;SDS011;486;48.726;8.964;2023-01-28T10:54:46;15.45;;;12.13;;
994;SDS011;486;48.726;8.964;2023-01-28T10:57:15;18.15;;;12.38;;
994;SDS011;486;48.726;8.964;2023-01-28T10:59:46;15.57;;;11.88;;
994;SDS011;486;48.726;8.964;2023-01-28T11:02:19;16.02;;;11.50;;
994;SDS011;486;48.726;8.964;2023-01-28T11:05:05;18.75;;;12.20;;
994;SDS011;486;48.726;8.964;2023-01-28T11:07:45;17.27;;;12.70;;
994;SDS011;486;48.726;8.964;2023-01-28T11:10:25;18.30;;;13.13;;
994;SDS011;486;48.726;8.964;2023-01-28T11:12:59;18.08;;;12.15;;
994;SDS011;486;48.726;8.964;2023-01-28T11:15:31;17.75;;;14.95;;
994;SDS011;486;48.726;8.964;2023-01-28T11:18:01;20.00;;;17.10;;
994;SDS011;486;48.726;8.964;2023-01-28T11:20:37;15.52;;;12.65;;
994;SDS011;486;48.726;8.964;2023-01-28T11:23:16;17.38;;;11.35;;
994;SDS011;486;48.726;8.964;2023-01-28T11:25:57;18.08;;;14.25;;
994;SDS011;486;48.726;8.964;2023-01-28T11:28:30;17.48;;;12.40;;
994;SDS011;486;48.726;8.964;2023-01-28T11:31:00;14.90;;;11.55;;
994;SDS011;486;48.726;8.964;2023-01-28T11:33:32;13.90;;;11.27;;
994;SDS011;486;48.726;8.964;2023-01-28T11:36:11;18.27;;;13.05;;
994;SDS011;486;48.726;8.964;2023-01-28T11:38:47;17.55;;;12.65;;
994;SDS011;486;48.726;8.964;2023-01-28T11:41:23;16.60;;;11.23;;
994;SDS011;486;48.726;8.964;2023-01-28T11:43:55;15.30;;;11.20;;
994;SDS011;486;48.726;8.964;2023-01-28T11:50:01;20.00;;;12.65;;
994;SDS011;486;48.726;8.964;2023-01-28T11:53:03;21.75;;;14.02;;
994;SDS011;486;48.726;8.964;2023-01-28T11:56:23;18.92;;;12.55;;
994;SDS011;486;48.726;8.964;2023-01-28T11:59:07;24.10;;;17.23;;
994;SDS011;486;48.726;8.964;2023-01-28T12:01:52;21.52;;;15.40;;
994;SDS011;486;48.726;8.964;2023-01-28T12:04:35;16.73;;;11.73;;
994;SDS011;486;48.726;8.964;2023-01-28T12:07:23;18.75;;;12.40;;
994;SDS011;486;48.726;8.964;2023-01-28T12:10:08;15.73;;;12.00;;
994;SDS011;486;48.726;8.964;2023-01-28T12:13:03;18.88;;;13.52;;
994;SDS011;486;48.726;8.964;2023-01-28T12:15:57;17.85;;;12.10;;
994;SDS011;486;48.726;8.964;2023-01-28T12:22:01;16.67;;;11.70;;
994;SDS011;486;48.726;8.964;2023-01-28T12:24:54;20.35;;;15.18;;
994;SDS011;486;48.726;8.964;2023-01-28T12:27:44;17.67;;;12.30;;
994;SDS011;486;48.726;8.964;2023-01-28T12:30:22;19.95;;;12.90;;
994;SDS011;486;48.726;8.964;2023-01-28T12:33:09;16.48;;;11.77;;
994;SDS011;486;48.726;8.964;2023-01-28T12:36:04;21.85;;;12.20;;
994;SDS011;486;48.726;8.964;2023-01-28T12:38:51;17.73;;;11.32;;
994;SDS011;486;48.726;8.964;2023-01-28T12:41:34;18.25;;;12.70;;
994;SDS011;486;48.726;8.964;2023-01-28T12:44:10;17.65;;;12.10;;
994;SDS011;486;48.726;8.964;2023-01-28T12:46:43;21.35;;;13.20;;
994;SDS011;486;48.726;8.964;2023-01-28T12:49:16;20.25;;;16.25;;
994;SDS011;486;48.726;8.964;2023-01-28T12:51:56;18.67;;;12.13;;
994;SDS011;486;48.726;8.964;2023-01-28T12:54:31;17.75;;;11.88;;
994;SDS011;486;48.726;8.964;2023-01-28T12:57:09;25.67;;;16.88;;
994;SDS011;486;48.726;8.964;2023-01-28T12:59:47;17.45;;;12.27;;
994;SDS011;486;48.726;8.964;2023-01-28T13:02:21;30.25;;;20.00;;
994;SDS011;486;48.726;8.964;2023-01-28T13:04:58;17.67;;;12.70;;
994;SDS011;486;48.726;8.964;2023-01-28T13:07:37;19.63;;;12.68;;
994;SDS011;486;48.726;8.964;2023-01-28T13:10:12;30.15;;;19.35;;
994;SDS011;486;48.726;8.964;2023-01-28T13:12:51;18.65;;;14.05;;
994;SDS011;486;48.726;8.964;2023-01-28T13:15:22;14.13;;;10.10;;
994;SDS011;486;48.726;8.964;2023-01-28T13:17:55;13.25;;;10.60;;
994;SDS011;486;48.726;8.964;2023-01-28T13:20:28;17.92;;;11.02;;
994;SDS011;486;48.726;8.964;2023-01-28T13:23:05;17.65;;;11.80;;
994;SDS011;486;48.726;8.964;2023-01-28T13:25:50;15.88;;;11.00;;
994;SDS011;486;48.726;8.964;2023-01-28T13:28:27;14.63;;;10.88;;
994;SDS011;486;48.726;8.964;2023-01-28T13:31:02;12.57;;;9.35;;
994;SDS011;486;48.726;8.964;2023-01-28T13:33:34;14.10;;;10.30;;
994;SDS011;486;48.726;8.964;2023-01-28T13:36:14;13.27;;;9.02;;
994;SDS011;486;48.726;8.964;2023-01-28T13:38:59;13.05;;;9.15;;
994;SDS011;486;48.726;8.964;2023-01-28T13:41:38;12.18;;;9.38;;
994;SDS011;486;48.726;8.964;2023-01-28T13:44:20;12.80;;;8.63;;
994;SDS011;486;48.726;8.964;2023-01-28T13:46:57;12.10;;;8.90;;
994;SDS011;486;48.726;8.964;2023-01-28T13:49:41;13.63;;;8.77;;
994;SDS011;486;48.726;8.964;2023-01-28T13:52:13;12.35;;;8.88;;
994;SDS011;486;48.726;8.964;2023-01-28T13:54:49;17.10;;;9.75;;
994;SDS011;486;48.726;8.964;2023-01-28T14:00:31;14.35;;;10.55;;
994;SDS011;486;48.726;8.964;2023-01-28T14:06:31;34.00;;;22.33;;
994;SDS011;486;48.726;8.964;2023-01-28T14:09:43;25.65;;;19.10;;
994;SDS011;486;48.726;8.964;2023-01-28T14:16:06;13.25;;;10.20;;
994;SDS011;486;48.726;8.964;2023-01-28T14:18:55;12.35;;;8.85;;
994;SDS011;486;48.726;8.964;2023-01-28T14:21:30;15.73;;;11.00;;
994;SDS011;486;48.726;8.964;2023-01-28T14:24:02;13.80;;;10.65;;
994;SDS011;486;48.726;8.964;2023-01-28T14:26:38;12.32;;;9.05;;
994;SDS011;486;48.726;8.964;2023-01-28T14:29:19;20.55;;;13.68;;
994;SDS011;486;48.726;8.964;2023-01-28T14:32:10;13.68;;;10.20;;
994;SDS011;486;48.726;8.964;2023-01-28T14:34:42;18.88;;;11.80;;
994;SDS011;486;48.726;8.964;2023-01-28T14:37:14;13.43;;;11.07;;
994;SDS011;486;48.726;8.964;2023-01-28T14:39:47;22.10;;;15.82;;
994;SDS011;486;48.726;8.964;2023-01-28T14:42:20;14.75;;;10.45;;
994;SDS011;486;48.726;8.964;2023-01-28T14:44:55;18.92;;;12.02;;
994;SDS011;486;48.726;8.964;2023-01-28T14:47:45;16.23;;;10.93;;
994;SDS011;486;48.726;8.964;2023-01-28T14:50:29;12.65;;;10.52;;
994;SDS011;486;48.726;8.964;2023-01-28T14:56:22;16.10;;;11.13;;
994;SDS011;486;48.726;8.964;2023-01-28T14:59:03;17.02;;;11.15;;
994;SDS011;486;48.726;8.964;2023-01-28T15:01:43;20.95;;;12.30;;
994;SDS011;486;48.726;8.964;2023-01-28T15:04:24;16.08;;;12.00;;
994;SDS011;486;48.726;8.964;2023-01-28T15:06:56;18.40;;;13.00;;
994;SDS011;486;48.726;8.964;2023-01-28T15:09:42;17.20;;;12.07;;
994;SDS011;486;48.726;8.964;2023-01-28T15:12:11;23.45;;;15.60;;
994;SDS011;486;48.726;8.964;2023-01-28T15:14:41;24.55;;;16.48;;
994;SDS011;486;48.726;8.964;2023-01-28T15:17:13;19.50;;;11.18;;
994;SDS011;486;48.726;8.964;2023-01-28T15:19:54;17.67;;;12.20;;
994;SDS011;486;48.726;8.964;2023-01-28T15:22:26;14.98;;;10.40;;
994;SDS011;486;48.726;8.964;2023-01-28T15:24:55;12.90;;;10.60;;
994;SDS011;486;48.726;8.964;2023-01-28T15:27:26;14.25;;;11.25;;
994;SDS011;486;48.726;8.964;2023-01-28T15:29:57;15.85;;;10.80;;
994;SDS011;486;48.726;8.964;2023-01-28T15:32:27;19.38;;;14.52;;
994;SDS011;486;48.726;8.964;2023-01-28T15:35:00;18.85;;;11.88;;
994;SDS011;486;48.726;8.964;2023-01-28T15:37:38;29.27;;;18.83;;
994;SDS011;486;48.726;8.964;2023-01-28T15:40:16;15.75;;;10.13;;
994;SDS011;486;48.726;8.964;2023-01-28T15:42:48;17.15;;;11.25;;
994;SDS011;486;48.726;8.964;2023-01-28T15:45:18;15.38;;;10.15;;
994;SDS011;486;48.726;8.964;2023-01-28T15:47:50;11.32;;;9.60;;
994;SDS011;486;48.726;8.964;2023-01-28T15:50:32;14.18;;;8.90;;
994;SDS011;486;48.726;8.964;2023-01-28T15:53:02;13.50;;;8.55;;
994;SDS011;486;48.726;8.964;2023-01-28T15:55:37;13.65;;;8.57;;
994;SDS011;486;48.726;8.964;2023-01-28T15:58:13;14.55;;;9.80;;
994;SDS011;486;48.726;8.964;2023-01-28T16:00:46;12.63;;;9.70;;
994;SDS011;486;48.726;8.964;2023-01-28T16:03:20;16.40;;;11.63;;
994;SDS011;486;48.726;8.964;2023-01-28T16:05:59;11.60;;;9.10;;
994;SDS011;486;48.726;8.964;2023-01-28T16:08:32;19.33;;;11.70;;
994;SDS011;486;48.726;8.964;2023-01-28T16:11:07;26.02;;;18.98;;
994;SDS011;486;48.726;8.964;2023-01-28T16:13:40;12.93;;;10.45;;
994;SDS011;486;48.726;8.964;2023-01-28T16:16:11;24.83;;;16.33;;
994;SDS011;486;48.726;8.964;2023-01-28T16:18:41;12.00;;;9.68;;
994;SDS011;486;48.726;8.964;2023-01-28T16:21:21;13.00;;;10.55;;
994;SDS011;486;48.726;8.964;2023-01-28T16:23:57;12.90;;;9.43;;
994;SDS011;486;48.726;8.964;2023-01-28T16:26:29;13.93;;;9.13;;
994;SDS011;486;48.726;8.964;2023-01-28T16:28:59;14.02;;;9.30;;
994;SDS011;486;48.726;8.964;2023-01-28T16:31:41;10.30;;;8.73;;
994;SDS011;486;48.726;8.964;2023-01-28T16:34:10;15.70;;;9.48;;
994;SDS011;486;48.726;8.964;2023-01-28T16:36:41;14.57;;;11.27;;
994;SDS011;486;48.726;8.964;2023-01-28T16:39:10;21.38;;;14.63;;